createdAt,value
2023-04-18T00:02:29.053Z,9.57
2023-04-18T00:07:33.637Z,9.73
2023-04-18T00:12:36.408Z,9.80
2023-04-18T00:17:41.025Z,10.37
2023-04-18T00:22:45.364Z,8.63
2023-04-18T00:27:46.950Z,8.93
2023-04-18T00:32:48.563Z,9.03
2023-04-18T00:37:50.205Z,10.03
2023-04-18T00:42:51.826Z,9.30
2023-04-18T00:47:56.391Z,9.03
2023-04-18T00:53:00.544Z,10.50
2023-04-18T00:58:02.410Z,11.53
2023-04-18T01:03:08.438Z,9.53
2023-04-18T01:08:10.686Z,9.87
2023-04-18T01:13:16.571Z,10.17
2023-04-18T01:18:20.902Z,11.70
2023-04-18T01:23:22.526Z,9.77
2023-04-18T01:28:24.518Z,8.97
2023-04-18T01:33:26.186Z,10.33
2023-04-18T01:38:30.994Z,9.50
2023-04-18T01:43:32.726Z,11.60
2023-04-18T01:48:36.830Z,8.80
2023-04-18T01:53:38.402Z,9.83
2023-04-18T01:58:41.644Z,10.17
2023-04-18T02:03:43.610Z,10.60
2023-04-18T02:08:45.426Z,10.13
2023-04-18T02:13:47.237Z,9.37
2023-04-18T02:18:49.730Z,10.93
2023-04-18T02:23:51.674Z,11.53
2023-04-18T02:28:53.374Z,9.70
2023-04-18T02:33:55.093Z,11.03
2023-04-18T02:38:57.118Z,11.17
2023-04-18T02:44:01.877Z,10.47
2023-04-18T02:49:03.659Z,12.03
2023-04-18T02:54:05.480Z,11.07
2023-04-18T02:59:09.550Z,10.40
2023-04-18T03:04:11.539Z,12.97
2023-04-18T03:09:16.336Z,9.13
2023-04-18T03:14:20.574Z,10.90
2023-04-18T03:19:22.176Z,11.50
2023-04-18T03:24:23.755Z,10.00
2023-04-18T03:29:26.368Z,9.93
2023-04-18T03:34:30.504Z,10.93
2023-04-18T03:39:32.104Z,11.00
2023-04-18T03:44:34.083Z,11.20
2023-04-18T03:49:35.683Z,10.20
2023-04-18T03:54:39.646Z,10.27
2023-04-18T03:59:41.829Z,11.30
2023-04-18T04:04:47.053Z,13.13
2023-04-18T04:09:48.720Z,9.80
2023-04-18T04:14:51.663Z,10.70
2023-04-18T04:19:53.393Z,10.20
2023-04-18T04:24:58.910Z,10.23
2023-04-18T04:30:00.919Z,10.80
2023-04-18T04:35:05.218Z,10.70
2023-04-18T04:40:10.550Z,12.77
2023-04-18T04:45:12.511Z,11.77
2023-04-18T04:50:15.777Z,13.13
2023-04-18T04:55:18.930Z,9.97
2023-04-18T05:00:21.570Z,10.50
2023-04-18T05:05:33.016Z,11.07
2023-04-18T05:10:37.117Z,10.17
2023-04-18T05:15:39.889Z,11.23
2023-04-18T05:20:41.520Z,10.03
2023-04-18T05:25:43.222Z,9.77
2023-04-18T05:30:45.179Z,12.00
2023-04-18T05:35:49.131Z,10.33
2023-04-18T05:40:55.586Z,12.33
2023-04-18T05:45:59.718Z,9.20
2023-04-18T05:51:04.677Z,12.07
2023-04-18T05:56:06.869Z,13.27
2023-04-18T06:01:08.927Z,10.60
2023-04-18T06:06:14.616Z,12.27
2023-04-18T06:11:16.405Z,12.57
2023-04-18T06:16:18.349Z,9.97
2023-04-18T06:21:21.319Z,12.40
2023-04-18T06:26:23.029Z,11.63
2023-04-18T06:31:26.732Z,12.63
2023-04-18T06:36:32.701Z,10.33
2023-04-18T06:41:35.768Z,12.90
2023-04-18T06:46:37.486Z,11.00
2023-04-18T06:51:39.135Z,10.40
2023-04-18T06:56:41.242Z,12.73
2023-04-18T07:01:44.209Z,10.60
2023-04-18T07:06:46.826Z,9.20
2023-04-18T07:11:52.555Z,10.90
2023-04-18T07:16:57.777Z,11.27
2023-04-18T07:22:01.382Z,11.40
2023-04-18T07:27:03.438Z,10.57
2023-04-18T07:32:07.509Z,11.83
2023-04-18T07:37:10.116Z,10.77
2023-04-18T07:42:11.795Z,11.00
2023-04-18T07:47:15.109Z,11.17
2023-04-18T07:52:16.810Z,14.20
2023-04-18T07:57:21.923Z,11.03
2023-04-18T08:02:23.731Z,10.77
2023-04-18T08:07:40.875Z,11.57
2023-04-18T08:12:42.565Z,10.60
2023-04-18T08:17:47.449Z,11.63
2023-04-18T08:23:05.146Z,12.47
2023-04-18T08:28:11.986Z,13.23
2023-04-18T08:33:13.828Z,12.37
2023-04-18T08:38:20.510Z,11.17
2023-04-18T08:43:29.669Z,13.17
2023-04-18T08:48:31.537Z,11.03
2023-04-18T08:53:34.059Z,11.37
2023-04-18T08:58:35.723Z,13.53
2023-04-18T09:03:44.514Z,12.67
2023-04-18T09:08:59.053Z,11.97
2023-04-18T09:14:02.552Z,13.57
2023-04-18T09:19:18.595Z,11.30
2023-04-18T09:24:37.981Z,11.07
2023-04-18T09:29:47.167Z,10.77
2023-04-18T09:34:58.455Z,11.17
2023-04-18T09:40:00.249Z,12.10
2023-04-18T09:45:07.131Z,12.67
2023-04-18T09:50:11.756Z,11.30
2023-04-18T09:55:19.009Z,12.40
2023-04-18T10:00:34.616Z,11.50
2023-04-18T10:05:50.709Z,11.87
2023-04-18T10:10:53.666Z,12.00
2023-04-18T10:15:58.671Z,11.17
2023-04-18T10:21:11.478Z,14.17
2023-04-18T10:26:13.184Z,12.33
2023-04-18T10:31:16.644Z,14.17
2023-04-18T10:36:23.868Z,10.40
2023-04-18T10:41:27.622Z,12.70
2023-04-18T10:46:32.298Z,11.23
2023-04-18T10:51:36.958Z,19.07
2023-04-18T10:56:39.524Z,11.70
2023-04-18T11:06:36.011Z,11.53
2023-04-18T11:11:37.601Z,12.47
2023-04-18T11:16:42.953Z,11.43
2023-04-18T11:21:49.414Z,11.27
2023-04-18T11:26:58.398Z,9.63
2023-04-18T11:32:08.160Z,11.43
2023-04-18T11:37:12.330Z,10.60
2023-04-18T11:42:14.088Z,10.13
2023-04-18T11:47:25.888Z,12.80
2023-04-18T11:52:29.172Z,11.03
2023-04-18T11:57:53.732Z,10.00
2023-04-18T12:02:59.384Z,10.63
2023-04-18T12:08:20.347Z,10.43
2023-04-18T12:13:26.866Z,10.00
2023-04-18T12:18:36.009Z,12.50
2023-04-18T12:23:39.792Z,10.83
2023-04-18T12:28:51.315Z,11.00
2023-04-18T12:33:52.913Z,11.13
2023-04-18T12:38:58.989Z,11.90
2023-04-18T12:44:00.689Z,9.87
2023-04-18T12:49:04.692Z,9.13
2023-04-18T12:54:06.512Z,10.13
2023-04-18T12:59:08.164Z,9.07
2023-04-18T13:04:13.028Z,8.77
2023-04-18T13:09:26.927Z,10.23
2023-04-18T13:14:33.535Z,9.77
2023-04-18T13:19:35.324Z,8.70
2023-04-18T13:24:37.205Z,9.57
2023-04-18T13:29:42.335Z,9.33
2023-04-18T13:34:46.950Z,9.93
2023-04-18T13:39:58.776Z,9.20
2023-04-18T13:45:00.442Z,7.57
2023-04-18T13:50:06.437Z,7.13
2023-04-18T13:55:10.638Z,7.57
2023-04-18T14:00:16.503Z,6.83
2023-04-18T14:05:18.180Z,6.73
2023-04-18T14:10:22.784Z,6.90
2023-04-18T14:15:26.760Z,6.87
2023-04-18T14:20:34.787Z,8.77
2023-04-18T14:25:39.471Z,6.87
2023-04-18T14:30:44.310Z,7.13
2023-04-18T14:35:46.014Z,6.40
2023-04-18T14:40:49.160Z,6.83
2023-04-18T14:45:50.909Z,5.50
2023-04-18T14:51:09.426Z,5.50
2023-04-18T14:56:11.135Z,6.37
2023-04-18T15:01:20.206Z,5.40
2023-04-18T15:06:23.164Z,5.33
2023-04-18T15:11:27.058Z,5.20
2023-04-18T15:16:28.749Z,8.03
2023-04-18T15:21:30.496Z,6.57
2023-04-18T15:26:33.249Z,5.87
2023-04-18T15:31:36.689Z,4.70
2023-04-18T15:36:49.945Z,6.30
2023-04-18T15:42:00.174Z,7.07
2023-04-18T15:47:01.978Z,5.03
2023-04-18T15:52:23.933Z,5.90
2023-04-18T15:57:36.254Z,7.90
2023-04-18T16:02:38.019Z,4.60
2023-04-18T16:07:41.798Z,4.60
2023-04-18T16:12:43.614Z,4.80
2023-04-18T16:17:45.649Z,5.30
2023-04-18T16:22:48.763Z,5.00
2023-04-18T16:27:55.236Z,4.70
2023-04-18T16:32:57.001Z,5.57
2023-04-18T16:37:58.762Z,5.57
2023-04-18T16:43:28.473Z,4.20
2023-04-18T16:48:31.526Z,4.30
2023-04-18T16:53:47.258Z,5.07
2023-04-18T16:58:51.750Z,4.40
2023-04-18T17:03:53.484Z,4.77
2023-04-18T17:08:55.217Z,5.23
2023-04-18T17:13:56.919Z,4.50
2023-04-18T17:18:58.564Z,5.33
2023-04-18T17:24:03.579Z,4.83
2023-04-18T17:29:07.455Z,4.53
2023-04-18T17:34:18.255Z,4.57
2023-04-18T17:39:27.177Z,5.30
2023-04-18T17:44:29.049Z,4.83
2023-04-18T17:49:34.526Z,4.93
2023-04-18T17:54:36.396Z,4.97
2023-04-18T17:59:38.139Z,5.10
2023-04-18T18:04:42.934Z,5.23
2023-04-18T18:09:45.591Z,5.73
2023-04-18T18:14:54.074Z,5.80
2023-04-18T18:20:04.083Z,6.13
2023-04-18T18:25:09.167Z,5.93
2023-04-18T18:30:11.211Z,5.43
2023-04-18T18:35:13.028Z,6.13
2023-04-18T18:40:27.880Z,6.07
2023-04-18T18:45:29.574Z,7.83
2023-04-18T18:50:44.730Z,5.40
2023-04-18T18:55:46.424Z,6.27
2023-04-18T19:00:51.207Z,6.57
2023-04-18T19:05:52.875Z,7.47
2023-04-18T19:10:58.107Z,5.93
2023-04-18T19:16:05.060Z,5.10
2023-04-18T19:21:09.162Z,5.97
2023-04-18T19:26:14.078Z,5.50
2023-04-18T19:31:15.770Z,6.23
2023-04-18T19:36:19.622Z,6.27
2023-04-18T19:41:38.962Z,6.47
2023-04-18T19:46:45.717Z,6.40
2023-04-18T19:51:47.425Z,6.30
2023-04-18T19:56:53.710Z,7.10
2023-04-18T20:02:03.335Z,6.80
2023-04-18T20:07:16.668Z,7.30
2023-04-18T20:12:18.551Z,6.33
2023-04-18T20:17:30.494Z,9.37
2023-04-18T20:22:34.288Z,7.90
2023-04-18T20:27:38.199Z,7.73
2023-04-18T20:32:48.213Z,7.33
2023-04-18T20:37:49.964Z,7.30
2023-04-18T20:42:59.663Z,7.70
2023-04-18T20:48:08.675Z,8.13
2023-04-18T20:53:10.447Z,10.93
2023-04-18T20:58:12.215Z,9.40
2023-04-18T21:03:16.860Z,8.80
2023-04-18T21:08:21.566Z,9.70
2023-04-18T21:18:45.667Z,10.07
2023-04-18T21:23:51.082Z,9.33
2023-04-18T21:28:55.692Z,10.63
2023-04-18T21:34:11.227Z,9.47
2023-04-18T21:39:15.565Z,10.27
2023-04-18T21:44:21.672Z,10.73
2023-04-18T21:49:23.333Z,10.97
2023-04-18T21:54:25.116Z,11.40
2023-04-18T22:04:50.220Z,10.17
2023-04-18T22:09:54.565Z,10.60
2023-04-18T22:14:56.735Z,11.10
2023-04-18T22:19:59.677Z,11.20
2023-04-18T22:25:02.453Z,11.57
2023-04-18T22:30:09.767Z,10.70
2023-04-18T22:35:11.429Z,10.97
2023-04-18T22:40:13.654Z,12.20
2023-04-18T22:45:17.880Z,11.70
2023-04-18T22:50:22.833Z,10.70
2023-04-18T22:55:24.645Z,10.93
2023-04-18T23:00:33.059Z,12.93
2023-04-18T23:11:10.736Z,11.53
2023-04-18T23:16:14.926Z,11.37
2023-04-18T23:21:27.233Z,10.73
2023-04-18T23:26:44.467Z,12.50
2023-04-18T23:31:53.257Z,11.43
2023-04-18T23:36:56.491Z,12.97
2023-04-18T23:41:58.148Z,12.83
2023-04-18T23:47:07.372Z,11.80
2023-04-18T23:52:20.625Z,10.57
2023-04-18T23:57:30.029Z,12.23
